Time;durP1;ratioP1;P1;durP2;ratioP2;P2;SDS_P1;SDS_P2;PMS_P1;PMS_P2;Temp;Humidity;BMP_temperature;BMP_pressure;BME280_temperature;BME280_humidity;BME280_pressure;Samples;Min_cycle;Max_cycle;Signal;HPM_P1;HPM_P2
2023/02/19 00:01:39;;;;;;;9.07;8.77;;;12.40;43.20;;;;;;4934773;29;20415;-57
2023/02/19 00:04:20;;;;;;;9.00;8.60;;;12.30;42.80;;;;;;4934831;29;20422;-58
2023/02/19 00:06:47;;;;;;;9.53;9.13;;;12.20;43.50;;;;;;4935085;29;20411;-55
2023/02/19 00:09:14;;;;;;;9.33;9.00;;;12.10;43.40;;;;;;4934952;29;20447;-57
2023/02/19 00:11:40;;;;;;;8.77;8.47;;;12.20;43.10;;;;;;4935519;29;20418;-56
2023/02/19 00:14:07;;;;;;;8.50;8.20;;;12.20;42.80;;;;;;4938739;29;20501;-58
2023/02/19 00:16:35;;;;;;;9.40;8.80;;;12.20;41.80;;;;;;4938260;29;20457;-56
2023/02/19 00:19:03;;;;;;;9.13;8.83;;;12.10;41.70;;;;;;4938488;29;20830;-57
2023/02/19 00:21:29;;;;;;;8.70;8.40;;;12.10;42.40;;;;;;4937972;29;20419;-52
2023/02/19 00:23:57;;;;;;;8.63;8.23;;;12.20;41.80;;;;;;4938332;29;20411;-56
2023/02/19 00:26:23;;;;;;;9.20;8.90;;;12.20;40.80;;;;;;4937312;29;20523;-57
2023/02/19 00:28:50;;;;;;;9.20;8.80;;;12.20;40.90;;;;;;4937960;29;20454;-57
2023/02/19 00:31:19;;;;;;;9.20;8.90;;;12.10;41.20;;;;;;4937344;29;20850;-56
2023/02/19 00:33:46;;;;;;;8.57;8.27;;;12.10;40.80;;;;;;4953667;29;20441;-43
2023/02/19 00:36:13;;;;;;;9.00;8.70;;;12.10;41.00;;;;;;4937365;29;20414;-44
2023/02/19 00:38:40;;;;;;;9.07;8.77;;;12.00;40.70;;;;;;4938062;29;20426;-49
2023/02/19 00:41:20;;;;;;;7.97;7.70;;;12.00;41.10;;;;;;4937204;29;20410;-46
2023/02/19 00:43:53;;;;;;;8.93;8.57;;;11.90;41.00;;;;;;4937615;29;20429;-46
2023/02/19 00:46:22;;;;;;;9.47;9.10;;;11.90;40.90;;;;;;4937066;29;20916;-44
2023/02/19 00:48:47;;;;;;;8.63;8.33;;;11.80;41.20;;;;;;4937508;29;20422;-42
2023/02/19 00:51:13;;;;;;;9.07;8.77;;;12.00;40.90;;;;;;4954223;29;21037;-49
2023/02/19 00:53:40;;;;;;;8.50;8.20;;;11.90;40.80;;;;;;4937438;29;20449;-43
2023/02/19 00:56:06;;;;;;;9.00;8.70;;;12.00;40.20;;;;;;4937115;29;20414;-41
2023/02/19 00:58:32;;;;;;;9.20;8.70;;;12.00;40.00;;;;;;4937128;29;20529;-44
2023/02/19 01:00:57;;;;;;;8.97;8.67;;;11.90;40.20;;;;;;4936433;29;20530;-46
2023/02/19 01:03:23;;;;;;;8.90;8.60;;;11.90;40.50;;;;;;4936671;29;20184;-41
2023/02/19 01:05:50;;;;;;;9.03;8.63;;;11.80;40.60;;;;;;4937069;29;20191;-45
2023/02/19 01:08:16;;;;;;;8.73;8.43;;;11.80;41.20;;;;;;4936720;29;20423;-45
2023/02/19 01:10:42;;;;;;;9.10;8.80;;;11.80;41.40;;;;;;4936672;29;20565;-48
2023/02/19 01:13:08;;;;;;;8.47;8.17;;;11.80;41.60;;;;;;4937189;29;20415;-41
2023/02/19 01:15:34;;;;;;;8.90;8.50;;;11.80;40.70;;;;;;4936708;29;20789;-48
2023/02/19 01:17:59;;;;;;;8.10;7.83;;;11.80;41.00;;;;;;4936437;29;20585;-43
2023/02/19 01:20:25;;;;;;;8.83;8.53;;;11.80;40.90;;;;;;4937354;29;20486;-47
2023/02/19 01:22:51;;;;;;;8.73;8.43;;;11.80;40.50;;;;;;4936200;29;20655;-44
2023/02/19 01:25:17;;;;;;;8.73;8.43;;;11.80;40.80;;;;;;4936323;29;20187;-55
2023/02/19 01:27:42;;;;;;;8.70;8.40;;;11.70;40.90;;;;;;4936182;29;20571;-57
2023/02/19 01:30:09;;;;;;;8.77;8.47;;;11.70;40.80;;;;;;4936788;29;20739;-56
2023/02/19 01:32:35;;;;;;;9.00;8.70;;;11.70;40.80;;;;;;4936127;29;20194;-54
2023/02/19 01:35:00;;;;;;;9.07;8.73;;;11.70;40.20;;;;;;4935323;29;20419;-54
2023/02/19 01:37:26;;;;;;;8.87;8.57;;;11.70;40.50;;;;;;4936217;29;20702;-53
2023/02/19 01:39:52;;;;;;;8.40;8.20;;;11.70;39.90;;;;;;4936446;29;20249;-54
2023/02/19 01:42:17;;;;;;;8.77;8.37;;;11.70;40.10;;;;;;4975579;22;20194;-55
2023/02/19 01:44:46;;;;;;;9.43;9.13;;;11.70;40.30;;;;;;4985047;23;20214;-60
2023/02/19 01:47:14;;;;;;;9.00;8.70;;;11.60;40.60;;;;;;4975303;28;20175;-59
2023/02/19 01:49:49;;;;;;;9.00;8.60;;;11.60;40.70;;;;;;4970248;28;20552;-59
2023/02/19 01:52:32;;;;;;;9.23;8.83;;;11.60;40.70;;;;;;4954474;28;20924;-59
2023/02/19 01:55:00;;;;;;;9.07;8.67;;;11.60;40.20;;;;;;4954177;28;20410;-58
2023/02/19 01:57:30;;;;;;;9.37;8.97;;;11.60;40.20;;;;;;4954197;28;20414;-51
2023/02/19 02:00:02;;;;;;;9.60;9.20;;;11.60;40.10;;;;;;4953825;28;20508;-52
2023/02/19 02:02:28;;;;;;;9.70;9.40;;;11.70;40.30;;;;;;4953566;28;20505;-49
2023/02/19 02:04:59;;;;;;;10.07;9.67;;;11.70;40.10;;;;;;4954064;28;20450;-51
2023/02/19 02:10:21;;;;;;;8.87;8.57;;;11.50;40.80;;;;;;4970431;28;20527;-53
2023/02/19 02:12:50;;;;;;;9.33;9.03;;;11.50;41.60;;;;;;4954091;28;20414;-48
2023/02/19 02:15:17;;;;;;;8.13;7.90;;;11.50;42.50;;;;;;4953552;28;20417;-48
2023/02/19 02:18:01;;;;;;;9.47;9.17;;;11.50;42.40;;;;;;4953631;28;20453;-49
2023/02/19 02:20:26;;;;;;;9.30;9.00;;;11.50;42.50;;;;;;4954059;28;20417;-50
2023/02/19 02:23:09;;;;;;;9.53;9.13;;;11.40;42.80;;;;;;4955010;28;20425;-53
2023/02/19 02:26:06;;;;;;;9.70;9.40;;;11.30;43.90;;;;;;4953470;28;20186;-56
2023/02/19 02:28:59;;;;;;;9.10;8.80;;;11.30;45.00;;;;;;4954763;28;20433;-52
2023/02/19 02:31:29;;;;;;;8.70;8.40;;;11.30;46.00;;;;;;4956008;28;20524;-54
2023/02/19 02:34:03;;;;;;;9.20;8.90;;;11.20;47.30;;;;;;4956954;28;20417;-50
2023/02/19 02:36:42;;;;;;;8.60;8.30;;;11.10;48.00;;;;;;4952970;28;20485;-52
2023/02/19 02:39:11;;;;;;;9.10;8.80;;;11.10;49.10;;;;;;4953964;28;20450;-52
2023/02/19 02:41:48;;;;;;;8.30;8.00;;;10.90;49.60;;;;;;4970727;28;20429;-49
2023/02/19 02:44:13;;;;;;;8.33;8.03;;;10.90;50.20;;;;;;4952087;28;20529;-49
2023/02/19 02:46:43;;;;;;;8.53;8.23;;;10.80;49.70;;;;;;4952496;28;20525;-48
2023/02/19 02:49:18;;;;;;;8.53;8.23;;;10.80;50.10;;;;;;4952634;28;20311;-50
2023/02/19 02:51:49;;;;;;;8.77;8.47;;;10.80;49.60;;;;;;4953000;28;20417;-47
2023/02/19 02:57:17;;;;;;;8.03;7.73;;;10.80;48.80;;;;;;4970463;28;20446;-49
2023/02/19 02:59:44;;;;;;;8.10;7.70;;;10.80;49.00;;;;;;4952999;28;20438;-49
2023/02/19 03:02:23;;;;;;;8.77;8.47;;;10.80;48.40;;;;;;4970121;28;20819;-51
2023/02/19 03:19:48;;;;;;;8.03;7.73;;;10.80;51.00;;;;;;4969601;28;20764;-49
2023/02/19 03:22:18;;;;;;;7.87;7.57;;;10.70;52.10;;;;;;4952549;28;21079;-48
2023/02/19 03:27:43;;;;;;;7.20;7.00;;;10.70;53.30;;;;;;4969129;28;20452;-48
2023/02/19 03:30:13;;;;;;;8.13;7.83;;;10.60;53.70;;;;;;4951066;28;20474;-49
2023/02/19 03:32:44;;;;;;;7.77;7.47;;;10.70;54.20;;;;;;4952497;28;20421;-48
2023/02/19 03:35:27;;;;;;;7.73;7.43;;;10.60;54.80;;;;;;4968667;28;20402;-51
2023/02/19 03:38:01;;;;;;;7.30;7.00;;;10.60;55.60;;;;;;4951219;28;20429;-49
2023/02/19 03:40:29;;;;;;;7.70;7.50;;;10.70;55.70;;;;;;4951743;28;20418;-48
2023/02/19 03:43:08;;;;;;;7.90;7.60;;;10.70;55.70;;;;;;4951847;28;20429;-59
2023/02/19 03:46:07;;;;;;;8.00;7.67;;;10.80;55.40;;;;;;4951398;28;20448;-59
2023/02/19 03:48:47;;;;;;;8.60;8.20;;;10.90;53.60;;;;;;4947133;28;20973;-59
2023/02/19 03:51:25;;;;;;;7.73;7.43;;;10.80;54.10;;;;;;4955164;28;20829;-59
2023/02/19 03:54:21;;;;;;;7.63;7.43;;;10.70;54.80;;;;;;4955517;28;20414;-59
2023/02/19 03:57:17;;;;;;;7.83;7.63;;;10.70;54.80;;;;;;4954861;28;20422;-59
2023/02/19 03:59:55;;;;;;;7.50;7.30;;;10.60;55.10;;;;;;4971887;28;20853;-59
2023/02/19 04:02:56;;;;;;;7.07;6.80;;;10.60;55.50;;;;;;4955526;28;20496;-59
2023/02/19 04:05:28;;;;;;;8.10;7.80;;;10.70;55.90;;;;;;4930701;29;20463;-58
2023/02/19 04:07:59;;;;;;;7.33;7.13;;;10.60;55.10;;;;;;4964847;28;20418;-58
2023/02/19 04:10:26;;;;;;;7.80;7.60;;;10.60;55.50;;;;;;4955032;28;20489;-57
2023/02/19 04:13:01;;;;;;;8.03;7.73;;;10.70;54.80;;;;;;4955115;28;20909;-58
2023/02/19 04:15:32;;;;;;;7.20;7.00;;;10.60;54.40;;;;;;4955360;28;20492;-57
2023/02/19 04:18:13;;;;;;;7.90;7.50;;;10.60;54.80;;;;;;4955524;28;20414;-57
2023/02/19 04:20:43;;;;;;;7.53;7.33;;;10.60;54.30;;;;;;4955396;28;20501;-57
2023/02/19 04:23:09;;;;;;;7.57;7.33;;;10.60;53.90;;;;;;4971605;28;20422;-48
2023/02/19 04:25:38;;;;;;;8.13;7.83;;;10.70;54.20;;;;;;4955032;28;20424;-47
2023/02/19 04:28:04;;;;;;;7.93;7.63;;;10.60;53.90;;;;;;4954662;28;20441;-47
2023/02/19 04:30:30;;;;;;;7.70;7.40;;;10.60;54.20;;;;;;4954827;28;20508;-49
2023/02/19 04:32:55;;;;;;;7.23;7.03;;;10.70;54.40;;;;;;4954394;28;20511;-51
2023/02/19 04:35:21;;;;;;;8.17;7.87;;;10.80;53.40;;;;;;4954970;28;20273;-50
2023/02/19 04:37:46;;;;;;;7.50;7.30;;;10.70;53.00;;;;;;4955229;28;20199;-47
2023/02/19 04:40:12;;;;;;;7.40;7.20;;;10.80;52.70;;;;;;4954157;28;20221;-51
2023/02/19 04:42:37;;;;;;;8.20;8.00;;;10.80;53.10;;;;;;4954823;28;20643;-47
2023/02/19 04:45:03;;;;;;;7.23;7.03;;;10.90;52.80;;;;;;4954716;28;20190;-52
2023/02/19 04:47:31;;;;;;;7.23;7.03;;;10.90;52.50;;;;;;4972074;28;20210;-48
2023/02/19 04:49:56;;;;;;;7.47;7.27;;;11.10;52.40;;;;;;4955029;28;20716;-50
2023/02/19 04:52:22;;;;;;;8.00;7.80;;;11.10;51.10;;;;;;4955575;28;20418;-48
2023/02/19 04:54:49;;;;;;;7.07;6.87;;;11.20;52.00;;;;;;4954829;28;20181;-48
2023/02/19 04:57:15;;;;;;;8.17;7.87;;;11.40;50.80;;;;;;4955298;28;20574;-48
2023/02/19 04:59:41;;;;;;;8.00;7.80;;;11.40;49.50;;;;;;4954969;28;20434;-51
2023/02/19 05:02:06;;;;;;;7.30;7.10;;;11.50;49.00;;;;;;4955625;28;20597;-47
2023/02/19 05:04:32;;;;;;;7.77;7.57;;;11.60;47.50;;;;;;4955551;28;20186;-48
2023/02/19 05:06:57;;;;;;;7.33;7.13;;;11.60;45.80;;;;;;4955919;28;20202;-47
2023/02/19 05:09:23;;;;;;;7.00;6.80;;;11.40;46.90;;;;;;4956188;28;20265;-48
2023/02/19 05:11:49;;;;;;;7.80;7.60;;;11.50;46.90;;;;;;4955994;28;20405;-48
2023/02/19 05:14:15;;;;;;;7.63;7.43;;;11.40;47.40;;;;;;4955986;28;20654;-46
2023/02/19 05:16:41;;;;;;;7.83;7.63;;;11.60;46.20;;;;;;4972420;28;20548;-46
2023/02/19 05:19:10;;;;;;;7.67;7.47;;;11.60;45.90;;;;;;4972455;28;20414;-47
2023/02/19 05:21:36;;;;;;;7.87;7.67;;;11.80;44.70;;;;;;4972508;28;20473;-50
2023/02/19 05:24:02;;;;;;;8.70;8.50;;;11.90;43.90;;;;;;4971918;28;20417;-47
2023/02/19 05:26:30;;;;;;;7.57;7.37;;;11.80;43.20;;;;;;4973076;28;20410;-57
2023/02/19 05:28:55;;;;;;;8.57;8.37;;;11.60;43.00;;;;;;4972803;28;20422;-59
2023/02/19 05:31:22;;;;;;;7.87;7.67;;;11.50;44.30;;;;;;4971551;28;20461;-59
2023/02/19 05:33:50;;;;;;;7.60;7.40;;;11.60;44.20;;;;;;4972428;28;20179;-52
2023/02/19 05:36:16;;;;;;;7.93;7.73;;;11.70;43.90;;;;;;4972522;28;20462;-48
2023/02/19 05:38:42;;;;;;;7.80;7.60;;;11.80;43.20;;;;;;4973000;28;20453;-50
2023/02/19 05:41:11;;;;;;;8.07;7.87;;;11.90;42.70;;;;;;4972885;28;20430;-48
2023/02/19 05:43:38;;;;;;;7.43;7.23;;;11.90;42.10;;;;;;4973552;28;20221;-50
2023/02/19 05:46:05;;;;;;;7.40;7.20;;;12.00;40.60;;;;;;4973363;28;20433;-48
2023/02/19 05:48:30;;;;;;;7.30;7.10;;;12.00;40.90;;;;;;4973741;28;20426;-47
2023/02/19 05:51:02;;;;;;;7.33;7.13;;;12.10;40.40;;;;;;4973227;28;20461;-59
2023/02/19 05:53:27;;;;;;;7.43;7.23;;;12.20;39.60;;;;;;4973363;28;20183;-56
2023/02/19 05:55:53;;;;;;;7.03;6.83;;;12.00;39.80;;;;;;4973226;28;20409;-58
2023/02/19 05:58:19;;;;;;;7.50;7.30;;;12.00;40.10;;;;;;4973280;28;20635;-56
2023/02/19 06:00:44;;;;;;;7.80;7.60;;;11.90;40.00;;;;;;4973303;28;20182;-52
2023/02/19 06:03:10;;;;;;;7.60;7.40;;;12.00;39.60;;;;;;4972846;28;20182;-55
2023/02/19 06:05:36;;;;;;;7.37;7.17;;;12.00;39.00;;;;;;4972704;28;20498;-53
2023/02/19 06:08:02;;;;;;;7.70;7.50;;;12.00;39.00;;;;;;4972861;28;20182;-55
2023/02/19 06:10:27;;;;;;;7.73;7.43;;;12.00;39.70;;;;;;4971377;28;20548;-56
2023/02/19 06:12:53;;;;;;;7.87;7.67;;;12.00;39.20;;;;;;4960459;28;20178;-54
2023/02/19 06:15:20;;;;;;;7.30;7.10;;;12.00;39.70;;;;;;4944753;28;20236;-55
2023/02/19 06:17:46;;;;;;;7.83;7.63;;;11.70;40.60;;;;;;4947332;28;20430;-56
2023/02/19 06:20:12;;;;;;;7.00;6.80;;;11.70;41.40;;;;;;4947274;28;20426;-56
2023/02/19 06:22:37;;;;;;;7.07;6.87;;;11.60;41.00;;;;;;4947258;28;20774;-55
2023/02/19 06:25:03;;;;;;;7.70;7.50;;;11.50;41.70;;;;;;4947211;28;20542;-56
2023/02/19 06:27:29;;;;;;;7.67;7.47;;;11.30;42.40;;;;;;4947833;28;20322;-58
2023/02/19 06:29:54;;;;;;;7.63;7.43;;;11.10;43.10;;;;;;4963571;28;20970;-59
2023/02/19 06:32:20;;;;;;;7.07;6.87;;;11.00;43.50;;;;;;4947676;28;20270;-59
2023/02/19 06:34:46;;;;;;;6.90;6.70;;;10.90;43.10;;;;;;4955833;28;20237;-58
2023/02/19 06:37:11;;;;;;;7.87;7.57;;;10.90;43.90;;;;;;4940296;28;20189;-59
2023/02/19 06:39:37;;;;;;;7.30;7.10;;;10.80;43.10;;;;;;4956277;28;20175;-59
2023/02/19 06:42:03;;;;;;;7.43;7.23;;;10.60;43.50;;;;;;4955875;28;20185;-59
2023/02/19 06:44:28;;;;;;;7.90;7.70;;;10.50;44.00;;;;;;4955632;28;20207;-58
2023/02/19 06:46:54;;;;;;;7.00;6.80;;;10.40;43.80;;;;;;4955951;28;20225;-59
2023/02/19 06:49:20;;;;;;;7.87;7.53;;;10.40;43.80;;;;;;4955829;28;20178;-58
2023/02/19 06:51:46;;;;;;;7.07;6.87;;;10.40;43.90;;;;;;4972832;28;20470;-60
2023/02/19 06:54:12;;;;;;;7.50;7.30;;;10.40;44.20;;;;;;4955697;28;20417;-58
2023/02/19 06:56:38;;;;;;;7.00;6.80;;;10.50;43.00;;;;;;4953438;28;20550;-59
2023/02/19 06:59:08;;;;;;;7.40;7.20;;;10.50;43.20;;;;;;4946306;28;20183;-60
2023/02/19 07:01:36;;;;;;;8.70;8.40;;;10.50;43.00;;;;;;4946585;28;20422;-56
2023/02/19 07:04:02;;;;;;;7.57;7.37;;;10.50;42.00;;;;;;4954113;28;20430;-59
2023/02/19 07:06:28;;;;;;;7.80;7.60;;;10.60;42.10;;;;;;4955384;28;20480;-60
2023/02/19 07:08:56;;;;;;;7.53;7.23;;;10.50;42.00;;;;;;4972977;28;20869;-60
2023/02/19 07:11:23;;;;;;;7.80;7.60;;;10.40;41.50;;;;;;4954518;28;20469;-60
2023/02/19 07:13:54;;;;;;;8.30;8.10;;;10.50;42.20;;;;;;4955242;28;20423;-61
2023/02/19 07:16:20;;;;;;;8.07;7.87;;;10.50;42.40;;;;;;4949530;28;20506;-62
2023/02/19 07:18:45;;;;;;;7.60;7.40;;;10.60;42.20;;;;;;4955450;28;20929;-61
2023/02/19 07:21:13;;;;;;;7.53;7.33;;;10.40;41.60;;;;;;4953574;28;20186;-63
2023/02/19 07:23:40;;;;;;;8.10;7.90;;;10.40;42.00;;;;;;4954102;28;20292;-63
2023/02/19 07:26:11;;;;;;;7.07;6.77;;;10.50;42.10;;;;;;4948661;29;20791;-60
2023/02/19 07:28:36;;;;;;;7.40;7.20;;;10.50;42.00;;;;;;4947332;28;20774;-48
2023/02/19 07:31:03;;;;;;;7.80;7.60;;;10.50;42.00;;;;;;4961156;28;20465;-49
2023/02/19 07:33:30;;;;;;;7.40;7.10;;;10.50;42.00;;;;;;4938068;29;20709;-49
2023/02/19 07:35:56;;;;;;;7.23;7.03;;;10.40;42.00;;;;;;4944426;28;20449;-53
2023/02/19 07:38:23;;;;;;;7.37;7.17;;;10.50;42.00;;;;;;4943755;28;20270;-47
2023/02/19 07:40:52;;;;;;;7.57;7.37;;;10.60;41.70;;;;;;4947611;28;20414;-48
2023/02/19 07:43:18;;;;;;;7.80;7.60;;;10.50;40.80;;;;;;4952894;28;20937;-48
2023/02/19 07:45:44;;;;;;;8.03;7.83;;;10.50;40.50;;;;;;4972892;28;20464;-49
2023/02/19 07:48:10;;;;;;;7.90;7.70;;;10.50;39.90;;;;;;4955813;28;20640;-48
2023/02/19 07:50:35;;;;;;;8.30;8.10;;;10.50;39.40;;;;;;4955409;28;20482;-51
2023/02/19 07:53:01;;;;;;;7.60;7.40;;;10.50;39.60;;;;;;4955331;28;20214;-49
2023/02/19 07:55:26;;;;;;;7.90;7.40;;;10.50;38.60;;;;;;4955891;28;20269;-49
2023/02/19 07:57:52;;;;;;;7.70;7.43;;;10.60;38.70;;;;;;4955721;28;20190;-50
2023/02/19 08:00:18;;;;;;;8.43;8.10;;;10.50;38.50;;;;;;4954929;28;20183;-48
2023/02/19 08:03:00;;;;;;;7.70;7.40;;;10.50;38.40;;;;;;4955592;28;20191;-48
2023/02/19 08:05:44;;;;;;;7.93;7.63;;;10.70;37.60;;;;;;4972367;28;20512;-49
2023/02/19 08:08:14;;;;;;;7.83;7.63;;;10.80;37.80;;;;;;4954983;28;20425;-59
2023/02/19 08:13:26;;;;;;;7.37;7.17;;;10.70;37.30;;;;;;4961437;28;20453;-60
2023/02/19 08:16:07;;;;;;;7.03;6.83;;;10.70;38.00;;;;;;4944693;28;20465;-60
2023/02/19 08:18:33;;;;;;;7.40;7.20;;;10.80;37.10;;;;;;4943272;28;20415;-48
2023/02/19 08:20:59;;;;;;;7.63;7.43;;;10.70;37.00;;;;;;4940514;29;20963;-53
2023/02/19 08:23:25;;;;;;;7.87;7.57;;;10.80;36.70;;;;;;4935622;28;20183;-50
2023/02/19 08:25:52;;;;;;;7.83;7.63;;;10.90;36.10;;;;;;4935191;29;21255;-48
2023/02/19 08:28:19;;;;;;;7.30;7.10;;;10.80;36.80;;;;;;4934157;29;20842;-54
2023/02/19 08:30:46;;;;;;;7.33;7.13;;;10.80;36.60;;;;;;4934525;29;20466;-59
2023/02/19 08:33:17;;;;;;;7.37;7.07;;;10.80;36.60;;;;;;4935565;29;21310;-59
2023/02/19 08:35:44;;;;;;;7.80;7.60;;;10.80;36.90;;;;;;4938146;29;20526;-59
2023/02/19 08:38:11;;;;;;;7.33;7.13;;;10.70;38.10;;;;;;4937851;29;20442;-58
2023/02/19 08:40:38;;;;;;;6.60;6.40;;;10.70;37.80;;;;;;4947327;28;20442;-59
2023/02/19 08:43:06;;;;;;;6.50;6.30;;;10.70;38.80;;;;;;4957697;28;20450;-56
2023/02/19 08:45:32;;;;;;;7.60;7.30;;;10.70;38.30;;;;;;4957897;28;20859;-59
2023/02/19 08:47:58;;;;;;;7.30;7.10;;;10.70;38.70;;;;;;4957945;28;20422;-58
2023/02/19 08:50:25;;;;;;;6.90;6.70;;;10.80;38.00;;;;;;4957917;28;20225;-57
2023/02/19 08:52:51;;;;;;;7.23;7.03;;;10.80;38.10;;;;;;4957613;28;20497;-58
2023/02/19 08:55:16;;;;;;;6.73;6.53;;;10.70;38.50;;;;;;4957429;28;20508;-58
2023/02/19 08:57:42;;;;;;;6.97;6.77;;;10.60;37.50;;;;;;4957744;28;20236;-57
2023/02/19 09:00:10;;;;;;;6.80;6.50;;;10.50;39.10;;;;;;4957887;28;20536;-59
2023/02/19 09:02:36;;;;;;;6.70;6.50;;;10.50;38.50;;;;;;4957583;28;20244;-59
2023/02/19 09:05:04;;;;;;;7.20;7.00;;;10.50;39.00;;;;;;4957304;28;20529;-47
2023/02/19 09:07:30;;;;;;;6.90;6.70;;;10.50;38.70;;;;;;4957659;28;20277;-50
2023/02/19 09:09:56;;;;;;;7.13;6.93;;;10.50;38.60;;;;;;4957637;28;20596;-49
2023/02/19 09:12:22;;;;;;;7.40;7.00;;;10.60;39.10;;;;;;4957272;28;20903;-50
2023/02/19 09:14:47;;;;;;;6.63;6.43;;;10.70;38.30;;;;;;4957633;28;20512;-49
2023/02/19 09:17:13;;;;;;;7.27;7.07;;;10.80;36.50;;;;;;4957361;28;20175;-51
2023/02/19 09:19:39;;;;;;;7.17;6.97;;;10.80;36.80;;;;;;4957609;28;20179;-52
2023/02/19 09:22:04;;;;;;;7.60;7.30;;;10.80;36.60;;;;;;4957397;28;20179;-47
2023/02/19 09:24:31;;;;;;;7.23;6.93;;;10.80;36.90;;;;;;4957422;28;20214;-49
2023/02/19 09:26:56;;;;;;;7.60;7.40;;;10.70;36.10;;;;;;4957490;28;20493;-53
2023/02/19 09:29:26;;;;;;;7.20;7.00;;;10.80;36.00;;;;;;4957195;28;20418;-47
2023/02/19 09:31:59;;;;;;;7.30;7.10;;;10.80;35.70;;;;;;4957102;28;20575;-49
2023/02/19 09:34:27;;;;;;;7.73;7.43;;;10.80;34.30;;;;;;4956478;28;20469;-50
2023/02/19 09:36:53;;;;;;;7.63;7.33;;;10.70;34.30;;;;;;4957052;28;20421;-48
2023/02/19 09:39:19;;;;;;;8.37;8.03;;;10.80;33.60;;;;;;4957077;28;20422;-48
2023/02/19 09:42:09;;;;;;;8.50;8.00;;;10.80;33.60;;;;;;4957008;28;20844;-48
2023/02/19 09:44:37;;;;;;;7.67;7.33;;;10.80;33.30;;;;;;4956345;28;20944;-47
2023/02/19 09:47:11;;;;;;;8.27;7.87;;;10.90;32.30;;;;;;4956973;28;20472;-49
2023/02/19 09:49:39;;;;;;;7.87;7.57;;;10.90;32.30;;;;;;4956841;28;20425;-58
2023/02/19 09:52:14;;;;;;;8.07;7.80;;;11.00;32.40;;;;;;4957020;28;20537;-59
2023/02/19 09:54:40;;;;;;;8.20;7.80;;;11.10;32.50;;;;;;4956558;28;20503;-58
2023/02/19 09:57:16;;;;;;;8.63;8.13;;;11.10;31.70;;;;;;4956776;28;20514;-59
2023/02/19 09:59:49;;;;;;;7.40;7.10;;;11.00;32.00;;;;;;4971218;28;20433;-63
2023/02/19 10:02:19;;;;;;;8.53;7.90;;;10.90;30.20;;;;;;4957463;28;20422;-60
2023/02/19 10:04:46;;;;;;;8.07;7.60;;;11.00;30.70;;;;;;4968230;28;20910;-59
2023/02/19 10:07:23;;;;;;;8.93;8.17;;;11.00;30.20;;;;;;4962660;28;20461;-59
2023/02/19 10:10:24;;;;;;;8.30;7.90;;;11.00;29.50;;;;;;4966058;28;20561;-59
2023/02/19 10:12:53;;;;;;;8.23;7.70;;;11.10;29.20;;;;;;4950955;28;20415;-59
2023/02/19 10:15:46;;;;;;;7.03;6.80;;;11.10;29.90;;;;;;4955712;28;20837;-59
2023/02/19 10:18:14;;;;;;;7.73;7.37;;;11.10;30.00;;;;;;4949571;28;20477;-59
2023/02/19 10:20:40;;;;;;;7.70;7.40;;;11.20;29.60;;;;;;4955559;28;20426;-58
2023/02/19 10:23:09;;;;;;;7.70;7.40;;;11.30;29.90;;;;;;4956007;28;20418;-51
2023/02/19 10:25:38;;;;;;;7.53;7.23;;;11.30;29.70;;;;;;4956158;28;20557;-49
2023/02/19 10:28:05;;;;;;;7.67;7.37;;;11.30;29.60;;;;;;4956195;28;20426;-50
2023/02/19 10:30:34;;;;;;;6.47;6.27;;;11.30;29.50;;;;;;4955745;28;20569;-52
2023/02/19 10:33:07;;;;;;;8.17;7.80;;;11.30;29.70;;;;;;4955181;28;20444;-52
2023/02/19 10:35:59;;;;;;;6.90;6.60;;;11.40;29.90;;;;;;4953598;28;20501;-50
2023/02/19 10:38:27;;;;;;;7.90;7.60;;;11.40;29.70;;;;;;4951707;28;20554;-51
2023/02/19 10:41:00;;;;;;;7.10;6.80;;;11.40;29.30;;;;;;4953148;28;20430;-47
2023/02/19 10:43:32;;;;;;;7.50;7.10;;;11.50;30.00;;;;;;4945240;28;20835;-48
2023/02/19 10:46:02;;;;;;;7.90;7.40;;;11.50;29.80;;;;;;4951186;28;20532;-50
2023/02/19 10:48:44;;;;;;;7.40;7.10;;;11.60;29.90;;;;;;4948432;28;20439;-49
2023/02/19 10:51:14;;;;;;;8.13;7.83;;;11.40;30.00;;;;;;4947563;28;20471;-49
2023/02/19 10:53:42;;;;;;;6.80;6.60;;;11.40;30.30;;;;;;4955458;28;20432;-51
2023/02/19 10:56:14;;;;;;;7.57;7.27;;;11.30;30.30;;;;;;4972253;28;20445;-53
2023/02/19 10:58:43;;;;;;;8.10;7.70;;;11.40;29.80;;;;;;4955784;28;20910;-55
2023/02/19 11:01:14;;;;;;;7.60;7.30;;;11.50;30.10;;;;;;4955388;28;20925;-49
2023/02/19 11:03:41;;;;;;;7.50;7.20;;;11.40;30.00;;;;;;4955640;28;20847;-50
2023/02/19 11:06:10;;;;;;;8.07;7.70;;;11.50;29.90;;;;;;4955356;28;20450;-53
2023/02/19 11:09:05;;;;;;;9.73;7.30;;;11.50;29.20;;;;;;4955952;28;20422;-53
2023/02/19 11:11:36;;;;;;;7.37;6.97;;;11.50;29.20;;;;;;4955871;28;20458;-51
2023/02/19 11:14:15;;;;;;;7.20;6.83;;;11.60;28.80;;;;;;4955559;28;20422;-58
2023/02/19 11:16:45;;;;;;;7.87;7.57;;;11.50;28.70;;;;;;4955598;28;20437;-58
2023/02/19 11:19:37;;;;;;;7.60;7.20;;;11.50;28.70;;;;;;4955497;28;20421;-58
2023/02/19 11:22:37;;;;;;;8.77;7.87;;;11.70;28.40;;;;;;4955384;28;20778;-59
2023/02/19 11:25:18;;;;;;;7.50;7.07;;;11.80;28.00;;;;;;4972603;28;20409;-58
2023/02/19 11:27:53;;;;;;;7.87;7.37;;;11.80;27.70;;;;;;4955377;28;20417;-58
2023/02/19 11:30:41;;;;;;;7.40;6.90;;;11.70;27.90;;;;;;4949972;29;20465;-57
2023/02/19 11:33:23;;;;;;;6.87;6.60;;;11.70;28.00;;;;;;4955407;28;20796;-59
2023/02/19 11:36:15;;;;;;;6.73;6.43;;;11.80;27.80;;;;;;4957760;28;20930;-56
2023/02/19 11:38:41;;;;;;;7.17;6.60;;;11.60;29.20;;;;;;4943924;28;20426;-58
2023/02/19 11:41:16;;;;;;;7.50;7.10;;;11.60;28.90;;;;;;4955467;28;20837;-57
2023/02/19 11:43:57;;;;;;;7.10;6.80;;;11.50;29.20;;;;;;4955501;28;20531;-58
2023/02/19 11:46:37;;;;;;;6.83;6.50;;;11.50;29.70;;;;;;4958371;28;20418;-51
2023/02/19 11:49:34;;;;;;;7.70;7.40;;;11.40;30.50;;;;;;4959108;28;20565;-53
2023/02/19 11:52:17;;;;;;;7.10;6.80;;;11.50;32.00;;;;;;4955131;28;20473;-59
2023/02/19 11:54:48;;;;;;;6.67;6.27;;;11.70;31.10;;;;;;4955249;28;20422;-54
2023/02/19 11:57:48;;;;;;;7.60;6.80;;;11.70;30.90;;;;;;4955318;28;20429;-55
2023/02/19 12:00:29;;;;;;;6.93;6.63;;;11.60;30.70;;;;;;4955283;28;20518;-53
2023/02/19 12:02:58;;;;;;;6.80;6.50;;;11.70;29.10;;;;;;4954692;28;20482;-60
2023/02/19 12:05:25;;;;;;;6.73;6.50;;;11.60;29.10;;;;;;4955256;28;20822;-59
2023/02/19 12:07:56;;;;;;;7.13;6.53;;;11.60;29.10;;;;;;4957676;28;20783;-60
2023/02/19 12:10:31;;;;;;;6.00;5.70;;;11.60;28.70;;;;;;4958988;28;20556;-58
2023/02/19 12:13:18;;;;;;;6.20;6.00;;;11.70;28.60;;;;;;4955497;28;20451;-60
2023/02/19 12:16:00;;;;;;;6.27;5.87;;;11.80;28.20;;;;;;4957716;28;20449;-58
2023/02/19 12:18:31;;;;;;;7.23;7.00;;;11.80;27.70;;;;;;4951021;28;20434;-59
2023/02/19 12:21:09;;;;;;;7.20;6.90;;;11.80;28.10;;;;;;4948968;28;20492;-59
2023/02/19 12:23:58;;;;;;;6.60;6.30;;;11.90;28.00;;;;;;4964126;28;20452;-59
2023/02/19 12:26:29;;;;;;;7.60;6.83;;;11.90;27.30;;;;;;4957881;28;20516;-58
2023/02/19 12:29:25;;;;;;;6.73;6.43;;;11.90;27.40;;;;;;4950328;28;20417;-58
2023/02/19 12:32:03;;;;;;;6.63;5.77;;;11.70;27.50;;;;;;4962099;28;20563;-58
2023/02/19 12:34:34;;;;;;;5.80;5.57;;;11.60;27.70;;;;;;4975836;28;20870;-57
2023/02/19 12:37:05;;;;;;;6.47;6.03;;;11.60;28.00;;;;;;4946442;28;20874;-58
2023/02/19 12:39:54;;;;;;;6.57;6.27;;;11.70;27.80;;;;;;4945119;28;20923;-59
2023/02/19 12:42:52;;;;;;;6.37;6.07;;;11.70;27.60;;;;;;4956315;28;20496;-58
2023/02/19 12:45:27;;;;;;;6.40;6.10;;;11.80;27.50;;;;;;4957298;28;20454;-58
2023/02/19 12:48:11;;;;;;;6.53;6.30;;;12.00;27.10;;;;;;4961798;28;20440;-58
2023/02/19 12:50:39;;;;;;;6.57;6.27;;;12.00;27.20;;;;;;4956890;28;20513;-59
2023/02/19 12:53:26;;;;;;;7.40;6.80;;;12.10;27.00;;;;;;4957331;28;20819;-58
2023/02/19 12:55:53;;;;;;;6.40;6.20;;;12.20;26.50;;;;;;4955317;28;20476;-59
2023/02/19 12:58:29;;;;;;;8.30;7.80;;;12.10;26.50;;;;;;4962999;28;20429;-58
2023/02/19 13:00:58;;;;;;;7.00;6.50;;;12.10;26.10;;;;;;4956385;28;20483;-58
2023/02/19 13:03:48;;;;;;;6.63;6.30;;;12.10;26.30;;;;;;4956448;28;20802;-59
2023/02/19 13:06:24;;;;;;;6.87;6.50;;;12.10;26.10;;;;;;4955873;28;20529;-58
2023/02/19 13:09:06;;;;;;;6.37;6.07;;;12.20;25.50;;;;;;4965221;28;20425;-59
2023/02/19 13:11:43;;;;;;;6.60;6.20;;;12.20;25.20;;;;;;4979132;28;21020;-59
2023/02/19 13:14:19;;;;;;;6.63;6.23;;;12.30;24.80;;;;;;4960435;28;20438;-58
2023/02/19 13:16:50;;;;;;;6.60;6.40;;;12.10;25.40;;;;;;4964353;28;20790;-59
2023/02/19 13:19:15;;;;;;;6.43;6.23;;;12.10;25.80;;;;;;4963277;28;20764;-57
2023/02/19 13:24:35;;;;;;;6.67;6.30;;;11.90;26.40;;;;;;4988910;28;20236;-59
2023/02/19 13:27:19;;;;;;;6.30;6.00;;;11.90;26.60;;;;;;4964759;28;20429;-54
2023/02/19 13:29:48;;;;;;;6.70;6.40;;;11.80;26.70;;;;;;4956618;28;20761;-53
2023/02/19 13:32:32;;;;;;;6.80;6.40;;;11.80;26.80;;;;;;4956615;28;20427;-53
2023/02/19 13:35:51;;;;;;;6.57;6.27;;;11.90;26.80;;;;;;4959899;28;20940;-53
2023/02/19 13:38:17;;;;;;;6.70;6.40;;;12.00;26.50;;;;;;4897284;29;20420;-54